Time;durP1;ratioP1;P1;durP2;ratioP2;P2;SDS_P1;SDS_P2;PMS_P1;PMS_P2;Temp;Humidity;BMP_temperature;BMP_pressure;BME280_temperature;BME280_humidity;BME280_pressure;Samples;Min_cycle;Max_cycle;Signal;HPM_P1;HPM_P2
2022/10/31 00:02:01;;;;;;;3.87;3.17;;;;;;;;;;5006713;28;20582;-61
2022/10/31 00:04:26;;;;;;;3.70;3.00;;;;;;;;;;5006604;28;20564;-59
2022/10/31 00:06:52;;;;;;;3.70;3.20;;;;;;;;;;5000568;28;20251;-59
2022/10/31 00:09:17;;;;;;;4.83;3.57;;;;;;;;;;5009513;28;20554;-60
2022/10/31 00:11:42;;;;;;;4.83;3.30;;;;;;;;;;5010129;28;20230;-59
2022/10/31 00:14:07;;;;;;;3.70;3.20;;;;;;;;;;5009742;28;20192;-59
2022/10/31 00:16:33;;;;;;;3.67;3.10;;;;;;;;;;5003309;28;20247;-60
2022/10/31 00:19:00;;;;;;;3.57;3.03;;;;;;;;;;5007603;28;20551;-59
2022/10/31 00:21:27;;;;;;;5.23;3.47;;;;;;;;;;5006801;28;20196;-59
2022/10/31 00:23:52;;;;;;;4.37;3.20;;;;;;;;;;4998141;28;20251;-57
2022/10/31 00:26:18;;;;;;;3.50;3.20;;;;;;;;;;4994519;28;20317;-59
2022/10/31 00:28:43;;;;;;;4.07;3.30;;;;;;;;;;5021221;28;20182;-58
2022/10/31 00:31:10;;;;;;;3.60;2.93;;;;;;;;;;5007888;28;20254;-59
2022/10/31 00:33:37;;;;;;;3.87;3.20;;;;;;;;;;5012238;28;20657;-59
2022/10/31 00:36:03;;;;;;;5.17;3.13;;;;;;;;;;5006079;28;20247;-59
2022/10/31 00:38:29;;;;;;;3.60;3.13;;;;;;;;;;5016399;28;20202;-58
2022/10/31 00:40:54;;;;;;;4.03;3.30;;;;;;;;;;5013536;28;20196;-60
2022/10/31 00:43:19;;;;;;;3.73;3.10;;;;;;;;;;5010108;28;20180;-60
2022/10/31 00:45:45;;;;;;;4.03;3.30;;;;;;;;;;5008595;28;20184;-58
2022/10/31 00:48:10;;;;;;;4.50;3.20;;;;;;;;;;5017407;28;20210;-60
2022/10/31 00:50:35;;;;;;;4.00;3.20;;;;;;;;;;5014912;28;20187;-58
2022/10/31 00:53:00;;;;;;;3.20;2.90;;;;;;;;;;5014549;28;20176;-59
2022/10/31 00:55:26;;;;;;;3.57;2.90;;;;;;;;;;5013355;28;20176;-57
2022/10/31 00:57:51;;;;;;;4.60;3.30;;;;;;;;;;5012273;28;20203;-59
2022/10/31 01:00:16;;;;;;;3.87;3.30;;;;;;;;;;5006263;28;20291;-59
2022/10/31 01:02:42;;;;;;;3.53;3.03;;;;;;;;;;5003410;28;20207;-60
2022/10/31 01:05:07;;;;;;;3.77;3.07;;;;;;;;;;5013208;28;20176;-59
2022/10/31 01:07:35;;;;;;;4.00;2.70;;;;;;;;;;5018902;28;20212;-59
2022/10/31 01:10:01;;;;;;;3.93;3.00;;;;;;;;;;5012095;28;20195;-58
2022/10/31 01:12:26;;;;;;;3.60;2.97;;;;;;;;;;5019839;28;20202;-60
2022/10/31 01:14:51;;;;;;;3.70;3.00;;;;;;;;;;5013005;28;20192;-58
2022/10/31 01:17:16;;;;;;;3.57;3.07;;;;;;;;;;5012994;28;20202;-59
2022/10/31 01:19:41;;;;;;;3.23;2.80;;;;;;;;;;5021803;28;20263;-60
2022/10/31 01:22:07;;;;;;;4.60;2.97;;;;;;;;;;5010040;28;20212;-58
2022/10/31 01:24:32;;;;;;;3.70;3.10;;;;;;;;;;5023420;28;20195;-60
2022/10/31 01:26:57;;;;;;;3.97;2.70;;;;;;;;;;5007263;28;20207;-60
2022/10/31 01:29:22;;;;;;;3.57;2.80;;;;;;;;;;5011062;28;20639;-60
2022/10/31 01:31:48;;;;;;;3.30;3.00;;;;;;;;;;5009268;28;20180;-58
2022/10/31 01:34:15;;;;;;;3.10;2.53;;;;;;;;;;5019530;28;20458;-56
2022/10/31 01:36:41;;;;;;;3.50;2.93;;;;;;;;;;5009107;28;20207;-59
2022/10/31 01:39:09;;;;;;;3.20;2.87;;;;;;;;;;5019115;28;20318;-60
2022/10/31 01:41:46;;;;;;;4.43;2.83;;;;;;;;;;5013866;28;20215;-58
2022/10/31 01:44:14;;;;;;;4.63;3.10;;;;;;;;;;5016266;28;20180;-60
2022/10/31 01:46:53;;;;;;;3.53;2.80;;;;;;;;;;5015289;28;20211;-60
2022/10/31 01:49:23;;;;;;;3.53;2.90;;;;;;;;;;5010762;28;20171;-56
2022/10/31 01:51:53;;;;;;;3.47;3.00;;;;;;;;;;5016092;28;20176;-60
2022/10/31 01:54:21;;;;;;;3.50;2.73;;;;;;;;;;5019035;28;20172;-59
2022/10/31 01:56:49;;;;;;;3.40;2.80;;;;;;;;;;5007565;28;20290;-60
2022/10/31 01:59:17;;;;;;;3.30;2.90;;;;;;;;;;5000715;28;20184;-59
2022/10/31 02:01:43;;;;;;;4.10;3.07;;;;;;;;;;5008040;28;20770;-57
2022/10/31 02:04:08;;;;;;;3.80;2.90;;;;;;;;;;5010625;28;20187;-59
2022/10/31 02:06:53;;;;;;;3.33;2.80;;;;;;;;;;5021688;28;20238;-60
2022/10/31 02:09:23;;;;;;;3.80;3.07;;;;;;;;;;5008136;28;20187;-61
2022/10/31 02:11:51;;;;;;;3.27;2.80;;;;;;;;;;5008457;28;20222;-60
2022/10/31 02:14:16;;;;;;;3.07;2.70;;;;;;;;;;5008481;28;20221;-59
2022/10/31 02:16:41;;;;;;;3.53;3.00;;;;;;;;;;4998145;28;20247;-59
2022/10/31 02:19:08;;;;;;;3.53;2.83;;;;;;;;;;5016451;28;20184;-59
2022/10/31 02:21:38;;;;;;;3.77;2.73;;;;;;;;;;5010412;28;20212;-60
2022/10/31 02:24:29;;;;;;;3.70;2.90;;;;;;;;;;5008012;28;20181;-59
2022/10/31 02:27:04;;;;;;;2.97;2.50;;;;;;;;;;5001318;28;20255;-59
2022/10/31 02:29:48;;;;;;;3.20;2.63;;;;;;;;;;5007115;28;20190;-59
2022/10/31 02:32:32;;;;;;;3.70;2.70;;;;;;;;;;5006974;28;20204;-60
2022/10/31 02:35:21;;;;;;;3.90;2.83;;;;;;;;;;5004203;28;20176;-60
2022/10/31 02:37:53;;;;;;;2.80;2.47;;;;;;;;;;4996510;28;20695;-59
2022/10/31 02:40:34;;;;;;;3.17;2.73;;;;;;;;;;4994562;28;20173;-57
2022/10/31 02:43:31;;;;;;;2.83;2.50;;;;;;;;;;5006493;28;20251;-59
2022/10/31 02:46:15;;;;;;;2.83;2.40;;;;;;;;;;5005129;28;20188;-60
2022/10/31 02:48:42;;;;;;;3.67;3.00;;;;;;;;;;5004995;28;20191;-58
2022/10/31 02:51:08;;;;;;;3.73;2.80;;;;;;;;;;5002007;28;20196;-59
2022/10/31 02:53:34;;;;;;;3.53;2.77;;;;;;;;;;5004732;28;20195;-60
2022/10/31 02:56:19;;;;;;;3.43;2.73;;;;;;;;;;5004516;28;20216;-61
2022/10/31 02:58:58;;;;;;;4.57;2.67;;;;;;;;;;5001847;28;20191;-58
2022/10/31 03:01:39;;;;;;;3.53;2.60;;;;;;;;;;5004352;28;20206;-59
2022/10/31 03:04:17;;;;;;;2.50;2.30;;;;;;;;;;5004354;28;20234;-59
2022/10/31 03:07:00;;;;;;;3.00;2.67;;;;;;;;;;4996469;28;20208;-61
2022/10/31 03:09:37;;;;;;;2.60;2.40;;;;;;;;;;4999123;28;20245;-59
2022/10/31 03:12:04;;;;;;;3.67;2.60;;;;;;;;;;5003781;28;20728;-60
2022/10/31 03:14:40;;;;;;;3.53;2.57;;;;;;;;;;5001566;28;20187;-60
2022/10/31 03:17:07;;;;;;;4.10;2.70;;;;;;;;;;5003094;28;20266;-58
2022/10/31 03:19:37;;;;;;;3.20;2.63;;;;;;;;;;5003147;28;20199;-60
2022/10/31 03:22:17;;;;;;;3.33;2.40;;;;;;;;;;4983656;28;20309;-60
2022/10/31 03:24:43;;;;;;;2.90;2.60;;;;;;;;;;5005578;28;20614;-60
2022/10/31 03:27:11;;;;;;;4.20;2.70;;;;;;;;;;5003158;28;20680;-60
2022/10/31 03:29:37;;;;;;;3.30;2.60;;;;;;;;;;5005916;28;20318;-60
2022/10/31 03:32:07;;;;;;;3.67;2.80;;;;;;;;;;5001333;28;20591;-60
2022/10/31 03:34:35;;;;;;;2.63;2.40;;;;;;;;;;5005720;28;20331;-61
2022/10/31 03:37:02;;;;;;;3.70;2.40;;;;;;;;;;5004408;28;20731;-60
2022/10/31 03:39:28;;;;;;;2.90;2.60;;;;;;;;;;5004739;28;20901;-62
2022/10/31 03:41:59;;;;;;;3.13;2.50;;;;;;;;;;4999469;28;20228;-60
2022/10/31 03:44:26;;;;;;;3.57;2.50;;;;;;;;;;5005977;28;20697;-58
2022/10/31 03:46:51;;;;;;;2.53;2.33;;;;;;;;;;5004342;28;20215;-58
2022/10/31 03:49:17;;;;;;;2.90;2.57;;;;;;;;;;5007159;28;20176;-59
2022/10/31 03:51:48;;;;;;;2.93;2.63;;;;;;;;;;5001526;28;20200;-59
2022/10/31 03:54:20;;;;;;;3.53;2.53;;;;;;;;;;5002759;28;20667;-57
2022/10/31 03:56:52;;;;;;;2.67;2.33;;;;;;;;;;5004512;28;20212;-59
2022/10/31 03:59:24;;;;;;;2.93;2.20;;;;;;;;;;5003064;28;20207;-60
2022/10/31 04:01:54;;;;;;;2.87;2.27;;;;;;;;;;5009515;28;20246;-60
2022/10/31 04:04:20;;;;;;;3.07;2.60;;;;;;;;;;5011334;28;20183;-59
2022/10/31 04:06:46;;;;;;;2.47;2.27;;;;;;;;;;5022480;28;20212;-59
2022/10/31 04:09:13;;;;;;;3.13;2.60;;;;;;;;;;5010279;28;20570;-60
2022/10/31 04:11:49;;;;;;;3.43;2.63;;;;;;;;;;5008804;28;20181;-61
2022/10/31 04:14:14;;;;;;;3.27;2.63;;;;;;;;;;5010684;28;20176;-59
2022/10/31 04:16:41;;;;;;;3.07;2.40;;;;;;;;;;5007910;28;20210;-60
2022/10/31 04:19:06;;;;;;;2.80;2.47;;;;;;;;;;5008248;28;20250;-59
2022/10/31 04:21:32;;;;;;;2.80;2.50;;;;;;;;;;5006956;28;20688;-60
2022/10/31 04:23:57;;;;;;;3.40;2.80;;;;;;;;;;5009282;28;20227;-61
2022/10/31 04:26:23;;;;;;;2.63;2.30;;;;;;;;;;5009634;28;20223;-59
2022/10/31 04:28:48;;;;;;;3.40;2.60;;;;;;;;;;5009338;28;20184;-60
2022/10/31 04:31:14;;;;;;;2.70;2.40;;;;;;;;;;5008728;28;20175;-60
2022/10/31 04:33:39;;;;;;;3.20;2.80;;;;;;;;;;5010456;28;20184;-60
2022/10/31 04:36:04;;;;;;;3.30;2.50;;;;;;;;;;5008998;28;20195;-60
2022/10/31 04:38:30;;;;;;;3.40;2.47;;;;;;;;;;5006765;28;20702;-60
2022/10/31 04:40:55;;;;;;;3.47;2.50;;;;;;;;;;5010349;28;20561;-59
2022/10/31 04:43:21;;;;;;;3.00;2.57;;;;;;;;;;5009442;28;20220;-60
2022/10/31 04:45:46;;;;;;;2.83;2.43;;;;;;;;;;5006412;28;20207;-61
2022/10/31 04:48:11;;;;;;;2.73;2.30;;;;;;;;;;5008634;28;20295;-60
2022/10/31 04:50:36;;;;;;;2.60;2.40;;;;;;;;;;5007230;28;20223;-61
2022/10/31 04:53:02;;;;;;;3.00;2.67;;;;;;;;;;5007687;28;20193;-59
2022/10/31 04:55:27;;;;;;;2.70;2.37;;;;;;;;;;5007915;28;20675;-61
2022/10/31 04:57:52;;;;;;;2.87;2.27;;;;;;;;;;5008327;28;20204;-56
2022/10/31 05:00:19;;;;;;;3.93;2.60;;;;;;;;;;5006800;28;20191;-60
2022/10/31 05:02:49;;;;;;;3.53;2.50;;;;;;;;;;5002442;28;20200;-62
2022/10/31 05:05:15;;;;;;;2.50;2.20;;;;;;;;;;5010225;28;20173;-58
2022/10/31 05:07:41;;;;;;;2.27;2.07;;;;;;;;;;5000493;28;20488;-59
2022/10/31 05:10:09;;;;;;;3.27;2.40;;;;;;;;;;5007010;28;20230;-60
2022/10/31 05:12:35;;;;;;;2.77;2.30;;;;;;;;;;5002116;28;20184;-61
2022/10/31 05:15:00;;;;;;;3.07;2.27;;;;;;;;;;5003955;28;20192;-61
2022/10/31 05:17:25;;;;;;;2.90;2.40;;;;;;;;;;5005938;28;20202;-60
2022/10/31 05:19:50;;;;;;;2.37;2.17;;;;;;;;;;5004990;28;20185;-60
2022/10/31 05:22:15;;;;;;;2.53;2.07;;;;;;;;;;5004010;28;20219;-60
2022/10/31 05:24:41;;;;;;;3.00;2.50;;;;;;;;;;5005357;28;20184;-59
2022/10/31 05:27:06;;;;;;;2.70;2.10;;;;;;;;;;5006784;28;20200;-59
2022/10/31 05:29:33;;;;;;;3.30;2.40;;;;;;;;;;5003077;28;20258;-60
2022/10/31 05:31:58;;;;;;;2.90;2.47;;;;;;;;;;5009397;28;20168;-59
2022/10/31 05:34:23;;;;;;;2.73;2.43;;;;;;;;;;5005489;28;20184;-59
2022/10/31 05:36:49;;;;;;;2.97;2.30;;;;;;;;;;5006150;28;20226;-61
2022/10/31 05:39:14;;;;;;;2.83;2.30;;;;;;;;;;5005251;28;20204;-59
2022/10/31 05:41:39;;;;;;;2.80;2.30;;;;;;;;;;5008588;28;20282;-59
2022/10/31 05:44:04;;;;;;;2.60;2.40;;;;;;;;;;5005562;28;20184;-60
2022/10/31 05:46:30;;;;;;;2.73;2.30;;;;;;;;;;5007066;28;20203;-60
2022/10/31 05:48:55;;;;;;;2.67;2.20;;;;;;;;;;5003420;28;20295;-59
2022/10/31 05:51:20;;;;;;;3.33;2.20;;;;;;;;;;5003278;28;20220;-60
2022/10/31 05:53:47;;;;;;;2.60;2.40;;;;;;;;;;5005788;28;20271;-59
2022/10/31 05:56:12;;;;;;;2.30;2.10;;;;;;;;;;5006545;28;20184;-61
2022/10/31 05:58:37;;;;;;;4.03;2.20;;;;;;;;;;5006865;28;20184;-60
2022/10/31 06:01:02;;;;;;;2.50;2.20;;;;;;;;;;5009172;28;20223;-61
2022/10/31 06:03:27;;;;;;;2.23;2.00;;;;;;;;;;5002378;28;20206;-58
2022/10/31 06:05:53;;;;;;;2.40;2.03;;;;;;;;;;5005729;28;20176;-59
2022/10/31 06:08:18;;;;;;;2.83;2.33;;;;;;;;;;5003592;28;20298;-59
2022/10/31 06:10:43;;;;;;;2.57;1.90;;;;;;;;;;5000928;28;20215;-59
2022/10/31 06:13:09;;;;;;;2.43;2.13;;;;;;;;;;4997919;28;20664;-60
2022/10/31 06:15:34;;;;;;;2.60;2.17;;;;;;;;;;5005385;28;20211;-60
2022/10/31 06:18:01;;;;;;;2.90;2.40;;;;;;;;;;5006622;28;20215;-57
2022/10/31 06:20:26;;;;;;;2.60;2.40;;;;;;;;;;5004432;28;20184;-59
2022/10/31 06:22:52;;;;;;;2.77;2.40;;;;;;;;;;5003331;28;20216;-58
2022/10/31 06:25:17;;;;;;;4.17;2.20;;;;;;;;;;5006485;28;20640;-60
2022/10/31 06:27:42;;;;;;;2.73;1.93;;;;;;;;;;5003928;28;20208;-60
2022/10/31 06:30:08;;;;;;;7.10;3.20;;;;;;;;;;5007176;28;20188;-60
2022/10/31 06:32:33;;;;;;;7.80;4.00;;;;;;;;;;4996327;28;20232;-61
2022/10/31 06:34:58;;;;;;;6.57;3.77;;;;;;;;;;5006700;28;20176;-61
2022/10/31 06:37:24;;;;;;;5.73;4.00;;;;;;;;;;5005845;28;20251;-62
2022/10/31 06:39:49;;;;;;;7.63;4.23;;;;;;;;;;4999335;28;20223;-62
2022/10/31 06:42:15;;;;;;;9.10;4.10;;;;;;;;;;5007262;28;20203;-60
2022/10/31 06:44:41;;;;;;;9.20;3.97;;;;;;;;;;5003510;28;20187;-66
2022/10/31 06:47:06;;;;;;;6.90;4.33;;;;;;;;;;4889568;28;20243;-59
2022/10/31 06:49:31;;;;;;;7.43;3.70;;;;;;;;;;5000731;28;20184;-58
2022/10/31 06:51:56;;;;;;;6.80;3.67;;;;;;;;;;5005900;28;20185;-59
2022/10/31 06:54:22;;;;;;;7.23;3.70;;;;;;;;;;5002682;28;20188;-61
2022/10/31 06:56:47;;;;;;;8.03;3.90;;;;;;;;;;5001005;28;20204;-60
2022/10/31 06:59:13;;;;;;;6.57;3.20;;;;;;;;;;5006899;28;20184;-53
2022/10/31 07:01:38;;;;;;;5.90;3.35;;;;;;;;;;5006562;28;20216;-58
2022/10/31 07:04:04;;;;;;;8.63;3.45;;;;;;;;;;4999982;28;20528;-59
2022/10/31 07:06:29;;;;;;;7.13;3.40;;;;;;;;;;5008633;28;20965;-58
2022/10/31 07:08:54;;;;;;;6.50;3.00;;;;;;;;;;5004366;28;20184;-60
2022/10/31 07:11:19;;;;;;;7.68;3.50;;;;;;;;;;5005895;28;20504;-61
2022/10/31 07:13:44;;;;;;;8.40;3.10;;;;;;;;;;5004080;28;20193;-61
2022/10/31 07:16:12;;;;;;;5.82;3.05;;;;;;;;;;5006222;28;20663;-61
2022/10/31 07:18:37;;;;;;;4.30;2.83;;;;;;;;;;5003035;28;20226;-62
2022/10/31 07:21:03;;;;;;;5.82;3.40;;;;;;;;;;4998016;28;20201;-61
2022/10/31 07:23:29;;;;;;;6.57;3.60;;;;;;;;;;5003732;28;20176;-62
2022/10/31 07:25:55;;;;;;;6.60;3.13;;;;;;;;;;5003567;28;20191;-62
2022/10/31 07:28:21;;;;;;;6.40;3.35;;;;;;;;;;5000407;28;20189;-57
2022/10/31 07:30:52;;;;;;;6.82;3.13;;;;;;;;;;5000278;28;20183;-60
2022/10/31 07:33:17;;;;;;;5.75;3.50;;;;;;;;;;5003301;28;20542;-60
2022/10/31 07:35:43;;;;;;;7.13;3.42;;;;;;;;;;5009184;28;20176;-60
2022/10/31 07:38:10;;;;;;;5.40;3.13;;;;;;;;;;5011871;28;20378;-62
2022/10/31 07:40:35;;;;;;;8.10;3.22;;;;;;;;;;5002934;28;20208;-61
2022/10/31 07:43:00;;;;;;;6.82;3.22;;;;;;;;;;5009427;28;20711;-64
2022/10/31 07:45:26;;;;;;;8.55;3.15;;;;;;;;;;5003736;28;20172;-62
2022/10/31 07:47:52;;;;;;;5.93;3.10;;;;;;;;;;5009113;28;20199;-59
2022/10/31 07:50:22;;;;;;;5.13;3.10;;;;;;;;;;5006098;28;20373;-62
2022/10/31 07:52:47;;;;;;;5.60;3.30;;;;;;;;;;5002091;28;20203;-62
2022/10/31 07:55:13;;;;;;;5.25;3.10;;;;;;;;;;5001613;28;20255;-60
2022/10/31 07:57:39;;;;;;;6.65;3.08;;;;;;;;;;5001867;28;20227;-61
2022/10/31 08:00:05;;;;;;;7.68;3.33;;;;;;;;;;5005120;28;20207;-60
2022/10/31 08:02:31;;;;;;;5.30;2.85;;;;;;;;;;5002099;28;20351;-60
2022/10/31 08:04:56;;;;;;;7.68;3.25;;;;;;;;;;5006291;28;20652;-60
2022/10/31 08:07:21;;;;;;;5.85;3.05;;;;;;;;;;5005409;28;20196;-62
2022/10/31 08:09:46;;;;;;;5.82;2.92;;;;;;;;;;5004433;28;20550;-63
2022/10/31 08:12:12;;;;;;;6.72;3.30;;;;;;;;;;5006372;28;20323;-63
2022/10/31 08:14:37;;;;;;;5.80;3.10;;;;;;;;;;5003329;28;20296;-50
2022/10/31 08:17:02;;;;;;;6.50;3.10;;;;;;;;;;5003231;28;20905;-62
2022/10/31 08:19:27;;;;;;;6.55;3.00;;;;;;;;;;5003718;28;20678;-58
2022/10/31 08:21:54;;;;;;;6.88;3.05;;;;;;;;;;5001837;28;20671;-61
2022/10/31 08:24:20;;;;;;;8.00;2.97;;;;;;;;;;4999295;28;20180;-60
2022/10/31 08:26:45;;;;;;;3.42;2.63;;;;;;;;;;5002790;28;20200;-60
2022/10/31 08:29:11;;;;;;;4.65;2.60;;;;;;;;;;5002677;28;20180;-61
2022/10/31 08:31:36;;;;;;;3.40;2.63;;;;;;;;;;5009883;28;20173;-57
2022/10/31 08:34:02;;;;;;;6.32;2.65;;;;;;;;;;5001306;28;20181;-60
2022/10/31 08:36:28;;;;;;;5.38;3.10;;;;;;;;;;5002219;28;20210;-62
2022/10/31 08:38:53;;;;;;;7.40;2.90;;;;;;;;;;5001920;28;20543;-60
2022/10/31 08:41:18;;;;;;;3.88;2.55;;;;;;;;;;5002743;28;20195;-58
2022/10/31 08:43:44;;;;;;;6.18;2.83;;;;;;;;;;5006113;28;20694;-61
2022/10/31 08:46:09;;;;;;;4.18;3.00;;;;;;;;;;5002216;28;20560;-55
2022/10/31 08:48:34;;;;;;;4.35;2.63;;;;;;;;;;5009273;28;20203;-57
2022/10/31 08:50:59;;;;;;;4.45;2.97;;;;;;;;;;5004613;28;20184;-56
2022/10/31 08:53:26;;;;;;;5.35;3.17;;;;;;;;;;5001229;28;20263;-62
2022/10/31 08:55:54;;;;;;;3.97;2.72;;;;;;;;;;5005575;28;20334;-63
2022/10/31 08:58:19;;;;;;;4.43;2.80;;;;;;;;;;5004233;28;20571;-62
2022/10/31 09:00:47;;;;;;;6.55;2.70;;;;;;;;;;5004632;28;20180;-62
2022/10/31 09:03:23;;;;;;;5.65;2.63;;;;;;;;;;5003214;28;20203;-61
2022/10/31 09:05:49;;;;;;;3.70;3.10;;;;;;;;;;5002942;28;20171;-58
2022/10/31 09:08:15;;;;;;;4.97;2.92;;;;;;;;;;5001982;28;20694;-61
2022/10/31 09:10:40;;;;;;;4.55;2.83;;;;;;;;;;5005952;28;20168;-61
2022/10/31 09:13:09;;;;;;;4.20;2.90;;;;;;;;;;5002090;28;20208;-63
2022/10/31 09:15:38;;;;;;;4.22;3.00;;;;;;;;;;5000198;28;20671;-61
2022/10/31 09:18:03;;;;;;;4.38;2.75;;;;;;;;;;5001650;28;20228;-61
2022/10/31 09:20:29;;;;;;;6.20;2.80;;;;;;;;;;5003697;28;20176;-62
2022/10/31 09:23:00;;;;;;;3.78;2.80;;;;;;;;;;4999625;28;20244;-57
2022/10/31 09:25:26;;;;;;;6.78;3.20;;;;;;;;;;5002953;28;20180;-60
2022/10/31 09:27:55;;;;;;;4.72;3.17;;;;;;;;;;5002410;28;20196;-58
2022/10/31 09:30:20;;;;;;;4.00;2.90;;;;;;;;;;5005235;28;20223;-55
2022/10/31 09:32:45;;;;;;;5.30;3.20;;;;;;;;;;5000670;28;20181;-59
2022/10/31 09:35:11;;;;;;;5.30;3.03;;;;;;;;;;5001843;28;20173;-55
2022/10/31 09:37:36;;;;;;;6.10;3.03;;;;;;;;;;5006188;28;21075;-60
2022/10/31 09:40:01;;;;;;;6.15;3.20;;;;;;;;;;5003379;28;20559;-61
2022/10/31 09:42:48;;;;;;;6.65;2.90;;;;;;;;;;5006126;28;20640;-60
2022/10/31 09:45:25;;;;;;;5.53;3.03;;;;;;;;;;5008266;28;20198;-60
2022/10/31 09:48:03;;;;;;;5.55;3.35;;;;;;;;;;4997640;28;20283;-61
2022/10/31 09:50:38;;;;;;;6.70;3.20;;;;;;;;;;5006269;28;20176;-60
2022/10/31 09:53:10;;;;;;;6.60;3.80;;;;;;;;;;5000880;28;20176;-60
2022/10/31 09:55:47;;;;;;;3.75;3.10;;;;;;;;;;5008721;28;20172;-62
2022/10/31 09:58:20;;;;;;;6.18;3.10;;;;;;;;;;5002053;28;20204;-56
2022/10/31 10:00:47;;;;;;;5.43;3.33;;;;;;;;;;5002971;28;20267;-61
2022/10/31 10:03:31;;;;;;;5.82;3.58;;;;;;;;;;5000318;28;20668;-60
2022/10/31 10:06:22;;;;;;;6.82;3.15;;;;;;;;;;5000306;28;20200;-61
2022/10/31 10:08:48;;;;;;;5.07;3.35;;;;;;;;;;4999774;28;20234;-63
2022/10/31 10:11:40;;;;;;;5.43;2.80;;;;;;;;;;5005459;28;20663;-59
2022/10/31 10:14:13;;;;;;;5.75;3.28;;;;;;;;;;4997869;28;20181;-64
2022/10/31 10:16:56;;;;;;;6.40;3.42;;;;;;;;;;4994650;28;20196;-62
2022/10/31 10:19:26;;;;;;;5.50;3.58;;;;;;;;;;4999627;28;20925;-64
2022/10/31 10:22:19;;;;;;;5.72;3.10;;;;;;;;;;5000952;28;20236;-61
2022/10/31 10:24:55;;;;;;;5.32;3.00;;;;;;;;;;5002919;28;20186;-62
2022/10/31 10:27:23;;;;;;;6.28;3.20;;;;;;;;;;4998177;28;20294;-64
2022/10/31 10:30:07;;;;;;;6.57;3.40;;;;;;;;;;4996909;28;20226;-60
2022/10/31 10:32:42;;;;;;;3.30;3.00;;;;;;;;;;4999806;28;20184;-60
2022/10/31 10:35:19;;;;;;;4.72;3.38;;;;;;;;;;4999497;28;20237;-58
2022/10/31 10:37:46;;;;;;;6.07;3.63;;;;;;;;;;4999943;28;20196;-61
2022/10/31 10:40:18;;;;;;;5.82;3.10;;;;;;;;;;5000052;28;20232;-57
2022/10/31 10:49:12;;;;;;;5.63;3.00;;;;;;;;;;5009497;28;20310;-56
2022/10/31 10:51:47;;;;;;;7.38;3.10;;;;;;;;;;5004193;28;20552;-57
2022/10/31 10:54:24;;;;;;;5.18;3.78;;;;;;;;;;4999893;28;20670;-60
2022/10/31 10:57:28;;;;;;;5.57;3.60;;;;;;;;;;5003759;28;20203;-62
2022/10/31 10:59:54;;;;;;;5.30;3.22;;;;;;;;;;4996771;28;20552;-59
2022/10/31 11:02:24;;;;;;;6.22;3.28;;;;;;;;;;5005709;28;20683;-61
2022/10/31 11:04:52;;;;;;;7.97;3.25;;;;;;;;;;5004847;28;20210;-60
2022/10/31 11:07:18;;;;;;;6.63;3.38;;;;;;;;;;5006489;28;20200;-62
2022/10/31 11:09:43;;;;;;;6.68;3.25;;;;;;;;;;5014830;28;20279;-58
2022/10/31 11:12:17;;;;;;;5.35;3.33;;;;;;;;;;5003595;28;20268;-59
2022/10/31 11:14:49;;;;;;;5.43;3.72;;;;;;;;;;5010254;28;20183;-61
2022/10/31 11:17:29;;;;;;;8.73;3.78;;;;;;;;;;5003154;28;20192;-61
2022/10/31 11:20:14;;;;;;;6.07;3.80;;;;;;;;;;5019430;28;20186;-61
2022/10/31 11:22:43;;;;;;;6.07;3.78;;;;;;;;;;5005390;28;20201;-62
2022/10/31 11:25:25;;;;;;;7.85;3.88;;;;;;;;;;5020992;28;20212;-62
2022/10/31 11:28:05;;;;;;;7.07;4.00;;;;;;;;;;5000568;28;20275;-62
2022/10/31 11:30:35;;;;;;;7.10;3.85;;;;;;;;;;5007721;28;20180;-61
2022/10/31 11:33:00;;;;;;;6.20;3.40;;;;;;;;;;5006287;28;20173;-62
2022/10/31 11:35:26;;;;;;;6.28;3.67;;;;;;;;;;5007926;28;20614;-62
2022/10/31 11:37:53;;;;;;;6.63;3.67;;;;;;;;;;5009057;28;20568;-61
2022/10/31 11:40:24;;;;;;;5.60;3.28;;;;;;;;;;5018378;28;20179;-58
2022/10/31 11:42:52;;;;;;;8.35;4.47;;;;;;;;;;5003620;28;20200;-61
2022/10/31 11:45:32;;;;;;;6.75;3.70;;;;;;;;;;5002631;28;20587;-62
2022/10/31 11:48:00;;;;;;;5.45;3.38;;;;;;;;;;5006602;28;20196;-58
2022/10/31 11:50:39;;;;;;;6.50;4.00;;;;;;;;;;5004540;28;20204;-62
2022/10/31 11:53:13;;;;;;;5.60;4.30;;;;;;;;;;5004129;28;20640;-61
2022/10/31 11:55:39;;;;;;;6.47;3.38;;;;;;;;;;5007533;28;20278;-61
2022/10/31 11:58:23;;;;;;;5.07;3.75;;;;;;;;;;5006098;28;20272;-59
2022/10/31 12:00:51;;;;;;;5.78;3.65;;;;;;;;;;5006778;28;20200;-58
2022/10/31 12:03:22;;;;;;;5.47;3.35;;;;;;;;;;5001346;28;20542;-57
2022/10/31 12:06:11;;;;;;;6.53;3.25;;;;;;;;;;5008213;28;20198;-59
2022/10/31 12:08:38;;;;;;;5.68;3.30;;;;;;;;;;5001632;28;20191;-56
2022/10/31 12:11:15;;;;;;;4.60;3.30;;;;;;;;;;5022363;28;20238;-59
2022/10/31 12:14:08;;;;;;;6.70;3.38;;;;;;;;;;5007041;28;20242;-59
2022/10/31 12:16:47;;;;;;;5.75;3.30;;;;;;;;;;4999422;28;20212;-62
2022/10/31 12:19:47;;;;;;;4.28;3.00;;;;;;;;;;5003455;28;20189;-61
2022/10/31 12:22:17;;;;;;;6.25;3.28;;;;;;;;;;5007651;28;20192;-62
2022/10/31 12:25:23;;;;;;;6.10;3.88;;;;;;;;;;5003378;28;20226;-60
2022/10/31 12:28:04;;;;;;;5.93;3.10;;;;;;;;;;5002440;28;20220;-61
2022/10/31 12:31:07;;;;;;;4.03;3.08;;;;;;;;;;5006902;28;20644;-62
2022/10/31 12:34:10;;;;;;;5.65;3.10;;;;;;;;;;5004699;28;20563;-60
2022/10/31 12:36:47;;;;;;;5.47;3.00;;;;;;;;;;5005373;28;20195;-61
2022/10/31 12:39:34;;;;;;;4.82;3.03;;;;;;;;;;5005971;28;21002;-61
2022/10/31 12:42:33;;;;;;;7.22;3.33;;;;;;;;;;5000069;28;20212;-61
2022/10/31 12:45:11;;;;;;;7.53;3.50;;;;;;;;;;5003401;28;20177;-58
2022/10/31 12:47:50;;;;;;;4.95;3.22;;;;;;;;;;5005648;28;20203;-61
2022/10/31 12:50:28;;;;;;;4.80;3.40;;;;;;;;;;5019297;28;20180;-61
2022/10/31 12:53:02;;;;;;;5.43;2.90;;;;;;;;;;5002336;28;20176;-55
2022/10/31 12:55:30;;;;;;;4.05;2.92;;;;;;;;;;4999050;28;20552;-60
2022/10/31 12:58:02;;;;;;;8.30;2.97;;;;;;;;;;5004697;28;20767;-58
2022/10/31 13:00:27;;;;;;;4.25;2.97;;;;;;;;;;5006715;28;20207;-59
2022/10/31 13:03:00;;;;;;;3.92;2.90;;;;;;;;;;4998793;28;20227;-60
2022/10/31 13:05:33;;;;;;;4.55;3.08;;;;;;;;;;5004299;28;20276;-59
2022/10/31 13:08:07;;;;;;;6.80;3.42;;;;;;;;;;5001867;28;20204;-60
2022/10/31 13:10:41;;;;;;;5.30;2.88;;;;;;;;;;5003479;28;20538;-57
2022/10/31 13:13:23;;;;;;;4.03;3.10;;;;;;;;;;5001596;28;20179;-58
2022/10/31 13:15:55;;;;;;;3.83;3.00;;;;;;;;;;5001482;28;20182;-62
2022/10/31 13:18:30;;;;;;;6.10;2.88;;;;;;;;;;4998126;28;20195;-61
2022/10/31 13:20:58;;;;;;;4.50;3.00;;;;;;;;;;5001327;28;20214;-62
2022/10/31 13:23:32;;;;;;;4.40;3.20;;;;;;;;;;5001623;28;20200;-60
2022/10/31 13:26:00;;;;;;;4.28;2.95;;;;;;;;;;5014434;28;20186;-62
2022/10/31 13:28:46;;;;;;;5.88;3.25;;;;;;;;;;5000716;28;20192;-61
2022/10/31 13:31:11;;;;;;;4.20;3.33;;;;;;;;;;4995235;28;20204;-60
2022/10/31 13:33:48;;;;;;;4.38;3.05;;;;;;;;;;5000208;28;20227;-61
2022/10/31 13:36:26;;;;;;;3.85;2.80;;;;;;;;;;5002529;28;20175;-61
2022/10/31 13:39:18;;;;;;;4.18;2.75;;;;;;;;;;4999859;28;20203;-58
2022/10/31 13:41:48;;;;;;;6.22;3.08;;;;;;;;;;5008306;28;20217;-62
2022/10/31 13:44:18;;;;;;;4.10;2.85;;;;;;;;;;5003797;28;20180;-61
2022/10/31 13:46:44;;;;;;;4.55;2.60;;;;;;;;;;4999553;28;20665;-61
2022/10/31 13:49:30;;;;;;;5.35;3.17;;;;;;;;;;4999395;28;20719;-61
2022/10/31 13:52:11;;;;;;;4.28;2.90;;;;;;;;;;4998706;28;20288;-57
2022/10/31 13:54:41;;;;;;;4.88;2.70;;;;;;;;;;4998441;28;20196;-61
2022/10/31 13:57:23;;;;;;;6.88;2.78;;;;;;;;;;5002342;28;20312;-57
2022/10/31 13:59:55;;;;;;;3.88;2.85;;;;;;;;;;4999200;28;20534;-61
2022/10/31 14:02:26;;;;;;;3.20;2.63;;;;;;;;;;5001858;28;20194;-58
2022/10/31 14:04:58;;;;;;;4.07;2.60;;;;;;;;;;4999140;28;20240;-60
2022/10/31 14:07:24;;;;;;;4.63;2.78;;;;;;;;;;5000675;28;20196;-61
2022/10/31 14:10:16;;;;;;;4.75;3.00;;;;;;;;;;4997915;28;20198;-57
2022/10/31 14:12:43;;;;;;;3.58;2.80;;;;;;;;;;5002214;28;20184;-60
2022/10/31 14:15:20;;;;;;;3.13;2.45;;;;;;;;;;5002151;28;20184;-62
2022/10/31 14:18:02;;;;;;;3.60;2.50;;;;;;;;;;5011284;28;20572;-58
2022/10/31 14:20:37;;;;;;;3.47;2.70;;;;;;;;;;4999487;28;20175;-58
2022/10/31 14:23:33;;;;;;;3.78;2.80;;;;;;;;;;4999997;28;20234;-64
2022/10/31 14:26:17;;;;;;;4.57;2.30;;;;;;;;;;5010896;28;20703;-56
2022/10/31 14:28:43;;;;;;;4.30;2.50;;;;;;;;;;4998501;28;20651;-61
2022/10/31 14:31:27;;;;;;;4.47;2.70;;;;;;;;;;5001142;28;20261;-61
2022/10/31 14:33:52;;;;;;;3.40;2.65;;;;;;;;;;4998438;28;20183;-60
2022/10/31 14:36:28;;;;;;;4.15;3.15;;;;;;;;;;5000001;28;20176;-59
2022/10/31 14:38:59;;;;;;;3.08;2.45;;;;;;;;;;4998861;28;20183;-60
2022/10/31 14:41:47;;;;;;;4.13;2.30;;;;;;;;;;5003971;28;20219;-60
2022/10/31 14:44:47;;;;;;;3.50;2.58;;;;;;;;;;4999142;28;20841;-60
2022/10/31 14:47:24;;;;;;;3.08;2.53;;;;;;;;;;4950165;28;20275;-61
2022/10/31 14:49:55;;;;;;;3.72;2.70;;;;;;;;;;4996323;28;20207;-61
2022/10/31 14:52:21;;;;;;;3.53;2.70;;;;;;;;;;4999347;28;20173;-60
2022/10/31 14:54:51;;;;;;;3.83;2.50;;;;;;;;;;4998628;28;20187;-60
2022/10/31 14:57:21;;;;;;;4.07;2.65;;;;;;;;;;4997946;28;20202;-58
2022/10/31 14:59:50;;;;;;;2.80;2.47;;;;;;;;;;4997200;28;20180;-56
2022/10/31 15:02:34;;;;;;;3.45;2.53;;;;;;;;;;5001487;28;20227;-59
2022/10/31 15:05:00;;;;;;;3.28;2.53;;;;;;;;;;4998707;28;20184;-58
2022/10/31 15:07:27;;;;;;;3.47;2.50;;;;;;;;;;4982065;28;20606;-57
2022/10/31 15:10:05;;;;;;;3.75;2.75;;;;;;;;;;4996118;28;20181;-57